Time;durP1;ratioP1;P1;durP2;ratioP2;P2;SDS_P1;SDS_P2;PMS_P1;PMS_P2;Temp;Humidity;BMP_temperature;BMP_pressure;BME280_temperature;BME280_humidity;BME280_pressure;Samples;Min_cycle;Max_cycle;Signal;HPM_P1;HPM_P2
2024/03/10 00:00:16;;;;;;;;;52.50;37.50;;;;;-143.90;79.59;75432.72;4961015;28;102407;-72
2024/03/10 00:02:43;;;;;;;;;50.50;40.00;;;;;-143.90;79.82;75434.78;3154625;28;10097715;-72
2024/03/10 00:05:14;;;;;;;;;58.75;40.75;;;;;-143.90;79.91;75432.72;4953872;28;102507;-71
2024/03/10 00:07:43;;;;;;;;;51.25;42.25;;;;;-143.90;80.20;75432.72;4958473;28;104114;-71
2024/03/10 00:10:10;;;;;;;;;54.67;43.00;;;;;-143.90;80.18;75441.00;4962838;28;102803;-72
2024/03/10 00:12:37;;;;;;;;;52.50;40.75;;;;;-143.90;79.45;75428.59;4962795;28;102155;-71
2024/03/10 00:15:04;;;;;;;;;40.75;37.75;;;;;-143.90;79.49;75436.84;4965869;28;102252;-72
2024/03/10 00:17:30;;;;;;;;;60.00;43.00;;;;;-143.90;79.39;75428.59;4954492;28;104133;-72
2024/03/10 00:19:57;;;;;;;;;49.75;40.25;;;;;-143.90;78.81;75424.44;4959720;28;102869;-71
2024/03/10 00:22:24;;;;;;;;;53.25;42.25;;;;;-143.90;79.30;75426.50;4962446;27;102025;-71
2024/03/10 00:24:51;;;;;;;;;42.00;38.00;;;;;-143.90;79.26;75418.25;4952490;28;102144;-72
2024/03/10 00:27:17;;;;;;;;;49.50;40.50;;;;;-143.90;79.10;75422.38;4947018;28;104353;-71
2024/03/10 00:29:44;;;;;;;;;59.50;41.50;;;;;-143.90;79.28;75420.31;4955674;28;102495;-71
2024/03/10 00:32:10;;;;;;;;;54.25;43.25;;;;;-143.90;79.61;75418.25;4953429;28;102098;-71
2024/03/10 00:34:37;;;;;;;;;46.00;36.00;;;;;-143.90;79.32;75416.19;4963498;28;102359;-73
2024/03/10 00:37:05;;;;;;;;;55.00;42.25;;;;;-143.90;78.83;75418.25;4963828;28;104296;-71
2024/03/10 00:39:32;;;;;;;;;44.00;39.00;;;;;-143.90;79.30;75412.03;4957708;28;103550;-71
2024/03/10 00:41:59;;;;;;;;;46.75;38.50;;;;;-143.90;78.71;75407.91;4964950;27;102295;-71
2024/03/10 00:44:26;;;;;;;;;52.00;42.00;;;;;-143.90;78.70;75403.78;4961672;28;103406;-71
2024/03/10 00:46:53;;;;;;;;;44.25;30.50;;;;;-143.90;79.24;75412.03;4961805;28;104094;-71
2024/03/10 00:49:20;;;;;;;;;43.50;38.00;;;;;-143.90;78.99;75409.97;4953656;28;102534;-71
2024/03/10 00:51:48;;;;;;;;;48.75;38.00;;;;;-143.90;78.69;75403.78;4962138;28;107841;-72
2024/03/10 00:54:14;;;;;;;;;49.00;40.25;;;;;-143.90;79.02;75397.56;4964410;28;101994;-72
2024/03/10 00:56:41;;;;;;;;;50.25;39.00;;;;;-143.90;78.99;75397.56;4962212;28;104403;-71
2024/03/10 00:59:08;;;;;;;;;51.75;37.75;;;;;-143.90;79.08;75412.03;4956028;27;102298;-72
2024/03/10 01:01:35;;;;;;;;;49.00;41.25;;;;;-143.90;78.88;75403.78;4953812;28;102534;-72
2024/03/10 01:04:03;;;;;;;;;45.25;38.00;;;;;-143.90;78.89;75412.03;4964292;28;102111;-72
2024/03/10 01:06:29;;;;;;;;;44.75;38.75;;;;;-143.90;79.50;75418.25;4961096;27;108744;-72
2024/03/10 01:08:58;;;;;;;;;39.50;33.25;;;;;-143.90;79.40;75420.31;4960481;28;102139;-71
2024/03/10 01:11:24;;;;;;;;;53.75;42.25;;;;;-143.90;79.27;75418.25;4951238;28;102717;-71
2024/03/10 01:13:51;;;;;;;;;39.25;33.50;;;;;-143.90;79.38;75422.38;4967369;28;102098;-70
2024/03/10 01:16:18;;;;;;;;;54.00;39.25;;;;;-143.90;79.54;75420.31;4966549;28;104470;-72
2024/03/10 01:18:45;;;;;;;;;44.00;36.25;;;;;-143.90;80.01;75420.31;4965781;28;102602;-72
2024/03/10 01:21:13;;;;;;;;;49.25;38.25;;;;;-143.90;80.27;75422.38;4955360;28;103508;-72
2024/03/10 01:23:39;;;;;;;;;49.75;41.50;;;;;-143.90;80.60;75426.50;4965063;27;103384;-71
2024/03/10 01:26:06;;;;;;;;;43.75;37.00;;;;;-143.90;80.77;75436.84;4964990;27;104004;-72
2024/03/10 01:28:34;;;;;;;;;43.50;38.00;;;;;-143.90;80.59;75441.00;4967795;28;108521;-72
2024/03/10 01:31:01;;;;;;;;;42.25;36.25;;;;;-143.90;80.61;75441.00;4967729;27;102342;-71
2024/03/10 01:33:27;;;;;;;;;52.25;36.50;;;;;-143.90;80.46;75436.84;4955075;28;102631;-71
2024/03/10 01:35:54;;;;;;;;;42.50;36.75;;;;;-143.90;80.56;75430.66;4963260;27;104032;-71
2024/03/10 01:38:20;;;;;;;;;52.25;41.50;;;;;-143.90;80.41;75436.84;4964626;28;102455;-70
2024/03/10 01:40:47;;;;;;;;;55.75;39.25;;;;;-143.90;80.95;75441.00;4962895;27;102347;-71
2024/03/10 01:43:14;;;;;;;;;44.75;36.00;;;;;-143.90;81.29;75449.25;4960110;27;104700;-72
2024/03/10 01:45:40;;;;;;;;;51.75;39.25;;;;;-143.90;81.30;75453.41;4964803;27;104101;-72
2024/03/10 01:48:08;;;;;;;;;43.25;35.25;;;;;-143.90;81.43;75453.41;4960643;27;102013;-72
2024/03/10 01:50:34;;;;;;;;;47.25;36.75;;;;;-143.90;81.57;75453.41;4965738;27;102527;-72
2024/03/10 01:53:01;;;;;;;;;48.75;39.25;;;;;-143.90;81.99;75461.66;4965312;27;102029;-72
2024/03/10 01:55:28;;;;;;;;;51.00;38.25;;;;;-143.90;82.29;75472.00;4951776;27;103787;-72
2024/03/10 01:57:56;;;;;;;;;45.50;38.25;;;;;-143.90;82.22;75474.06;4965235;27;102228;-72
2024/03/10 02:00:22;;;;;;;;;50.00;37.00;;;;;-143.90;82.42;75474.06;4960733;28;101985;-71
2024/03/10 02:02:49;;;;;;;;;49.50;39.00;;;;;-143.90;82.41;75480.28;4959223;27;103363;-72
2024/03/10 02:05:17;;;;;;;;;44.00;38.00;;;;;-143.90;82.62;75486.47;4953218;27;103907;-72
2024/03/10 02:07:44;;;;;;;;;42.50;36.75;;;;;-143.90;82.27;75480.28;4954027;28;105999;-72
2024/03/10 02:10:10;;;;;;;;;46.75;39.50;;;;;-143.90;83.24;75498.88;4961538;27;102592;-72
2024/03/10 02:12:38;;;;;;;;;43.00;37.00;;;;;-143.90;83.21;75488.53;4964800;27;102675;-72
2024/03/10 02:15:06;;;;;;;;;42.75;37.00;;;;;-143.90;82.30;75482.34;4964463;28;104091;-72
2024/03/10 02:17:36;;;;;;;;;45.75;35.00;;;;;-143.90;82.13;75467.88;4956676;27;102209;-72
2024/03/10 02:20:14;;;;;;;;;49.00;34.75;;;;;-143.90;82.41;75463.72;4964878;27;102445;-71
2024/03/10 02:22:42;;;;;;;;;41.50;36.25;;;;;-143.90;82.38;75465.81;4957317;27;102691;-72
2024/03/10 02:25:12;;;;;;;;;34.00;34.00;;;;;-143.90;82.31;75453.41;4954037;27;104797;-71
2024/03/10 02:27:44;;;;;;;;;43.67;36.00;;;;;-143.90;82.64;75463.72;4958700;28;106908;-71
2024/03/10 02:30:19;;;;;;;;;41.25;36.50;;;;;-143.90;82.60;75465.81;4957540;27;102498;-72
2024/03/10 02:49:18;;;;;;;;;39.25;32.25;;;;;-143.90;84.85;75486.47;4952962;28;102469;-71
2024/03/10 02:51:45;;;;;;;;;45.00;38.00;;;;;-143.90;83.96;75480.28;4960114;28;102341;-72
2024/03/10 02:54:12;;;;;;;;;45.25;35.25;;;;;-143.90;84.16;75484.41;4966476;28;102849;-71
2024/03/10 02:56:39;;;;;;;;;42.50;32.75;;;;;-143.90;84.11;75484.41;4960293;28;105098;-71
2024/03/10 02:59:06;;;;;;;;;41.50;36.25;;;;;-143.90;84.26;75490.63;4965908;28;102373;-71
2024/03/10 03:01:39;;;;;;;;;46.00;38.25;;;;;-143.90;85.09;75490.63;4959063;28;102398;-71
2024/03/10 03:04:06;;;;;;;;;49.00;35.50;;;;;-143.90;84.23;75490.63;4959029;28;102269;-70
2024/03/10 03:06:32;;;;;;;;;42.75;39.00;;;;;-143.90;84.01;75488.53;4967833;28;104093;-71
2024/03/10 03:08:59;;;;;;;;;42.75;32.75;;;;;-143.90;84.16;75478.22;4961385;28;102347;-71
2024/03/10 03:11:25;;;;;;;;;43.00;34.00;;;;;-143.90;84.06;75478.22;4953224;28;102357;-71
2024/03/10 03:13:52;;;;;;;;;42.75;35.75;;;;;-143.90;84.09;75476.13;4965791;28;102394;-71
2024/03/10 03:16:19;;;;;;;;;40.75;32.75;;;;;-143.90;83.83;75469.94;4963007;28;104175;-71
2024/03/10 03:18:45;;;;;;;;;41.50;34.25;;;;;-143.90;84.35;75474.06;4963970;28;102930;-71
2024/03/10 03:21:12;;;;;;;;;33.75;30.25;;;;;-143.90;84.47;75476.13;4959345;28;102200;-70
2024/03/10 03:23:38;;;;;;;;;42.00;36.00;;;;;-143.90;83.83;75478.22;4962711;28;102005;-71
2024/03/10 03:26:05;;;;;;;;;49.00;37.00;;;;;-143.90;84.37;75478.22;4962344;28;104152;-71
2024/03/10 03:28:32;;;;;;;;;37.50;32.50;;;;;-143.90;84.08;75476.13;4966759;28;102684;-72
2024/03/10 03:30:58;;;;;;;;;41.00;31.50;;;;;-143.90;83.70;75472.00;4962755;28;102575;-71
2024/03/10 03:33:25;;;;;;;;;34.25;34.00;;;;;-143.90;83.88;75472.00;4951750;27;104070;-70
2024/03/10 03:35:52;;;;;;;;;36.50;29.75;;;;;-143.90;84.18;75463.72;4958439;28;104718;-71
2024/03/10 03:38:18;;;;;;;;;42.00;35.00;;;;;-143.90;84.23;75463.72;4962229;28;102536;-71
2024/03/10 03:40:45;;;;;;;;;40.50;35.25;;;;;-143.90;83.88;75463.72;4958351;28;102058;-71
2024/03/10 03:43:12;;;;;;;;;49.67;37.33;;;;;-143.90;83.96;75461.66;4959125;28;103008;-72
2024/03/10 03:45:39;;;;;;;;;48.00;32.75;;;;;-143.90;84.08;75463.72;4960141;28;104372;-71
2024/03/10 03:48:05;;;;;;;;;33.00;26.25;;;;;-143.90;83.80;75459.59;4964593;28;102492;-71
2024/03/10 03:50:33;;;;;;;;;32.75;29.75;;;;;-143.90;83.87;75461.66;4961759;28;102001;-72
2024/03/10 03:53:00;;;;;;;;;40.50;31.00;;;;;-143.90;84.46;75467.88;4965795;28;104103;-72
2024/03/10 03:55:28;;;;;;;;;35.00;30.00;;;;;-143.90;83.38;75461.66;4951969;28;103983;-72
2024/03/10 03:57:54;;;;;;;;;41.25;33.00;;;;;-143.90;83.85;75465.81;4958125;28;102077;-71
2024/03/10 04:00:21;;;;;;;;;41.50;36.00;;;;;-143.90;84.63;75461.66;4960198;28;102582;-71
2024/03/10 04:02:48;;;;;;;;;41.50;34.25;;;;;-143.90;84.37;75461.66;4962787;27;103066;-71
2024/03/10 04:05:15;;;;;;;;;44.50;35.50;;;;;-143.90;84.94;75463.72;4950513;27;104030;-71
2024/03/10 04:07:42;;;;;;;;;45.25;34.25;;;;;-143.90;84.77;75465.81;4958943;28;103647;-71
2024/03/10 04:10:09;;;;;;;;;40.25;37.00;;;;;-143.90;86.01;75469.94;4957521;28;104540;-71
2024/03/10 04:12:36;;;;;;;;;49.75;32.75;;;;;-143.90;85.90;75480.28;4963172;28;102410;-71
2024/03/10 04:15:03;;;;;;;;;45.75;33.00;;;;;-143.90;86.35;75486.47;4964214;28;107958;-71
2024/03/10 04:17:31;;;;;;;;;42.25;36.25;;;;;-143.90;86.27;75492.69;4951387;28;102811;-71
2024/03/10 04:19:59;;;;;;;;;39.50;34.25;;;;;-143.90;85.53;75488.53;4965745;28;102012;-71
2024/03/10 04:22:26;;;;;;;;;37.25;31.50;;;;;-143.90;86.54;75492.69;4962930;27;102414;-71
2024/03/10 04:24:55;;;;;;;;;30.75;28.75;;;;;-143.90;85.94;75490.63;4961204;28;104168;-71
2024/03/10 04:27:23;;;;;;;;;33.00;29.50;;;;;-143.90;85.96;75484.41;4954846;27;102632;-71
2024/03/10 04:29:50;;;;;;;;;37.25;33.50;;;;;-143.90;86.29;75490.63;4959174;28;102448;-71
2024/03/10 04:32:17;;;;;;;;;36.00;30.25;;;;;-143.90;86.31;75494.75;4965147;28;102396;-71
2024/03/10 04:34:46;;;;;;;;;36.75;28.75;;;;;-143.90;86.15;75480.28;4962981;28;104260;-71
2024/03/10 04:37:13;;;;;;;;;35.00;28.25;;;;;-143.90;86.95;75486.47;4954738;28;102259;-71
2024/03/10 04:39:39;;;;;;;;;35.00;30.00;;;;;-143.90;86.71;75486.47;4961703;28;101806;-71
2024/03/10 04:42:06;;;;;;;;;35.00;26.00;;;;;-143.90;86.72;75486.47;4966177;28;102495;-71
2024/03/10 04:44:33;;;;;;;;;23.50;17.25;;;;;-143.90;86.72;75494.75;4953821;28;108825;-72
2024/03/10 04:47:00;;;;;;;;;28.00;23.50;;;;;-143.90;86.21;75488.53;4961702;27;102444;-72
2024/03/10 04:49:27;;;;;;;;;25.25;22.75;;;;;-143.90;87.03;75494.75;4952227;28;103054;-72
2024/03/10 04:51:53;;;;;;;;;35.75;31.50;;;;;-143.90;86.50;75498.88;4967678;28;104445;-72
2024/03/10 04:54:20;;;;;;;;;36.75;28.50;;;;;-143.90;86.62;75503.03;4965152;27;104061;-72
2024/03/10 04:56:49;;;;;;;;;26.25;23.25;;;;;-143.90;86.59;75505.09;4962773;28;102334;-72
2024/03/10 04:59:17;;;;;;;;;26.25;23.25;;;;;-143.90;86.85;75513.34;4954730;28;102598;-72
2024/03/10 05:01:45;;;;;;;;;29.00;25.75;;;;;-143.90;87.77;75511.28;4968005;27;102458;-72
2024/03/10 05:04:14;;;;;;;;;34.75;33.75;;;;;-143.90;87.87;75515.41;4966108;28;104006;-71
2024/03/10 05:06:41;;;;;;;;;40.75;34.00;;;;;-143.90;87.92;75511.28;4965381;28;102222;-71
2024/03/10 05:09:08;;;;;;;;;41.25;33.25;;;;;-143.90;88.29;75513.34;4963065;28;102442;-72
2024/03/10 05:11:35;;;;;;;;;39.75;30.00;;;;;-143.90;88.10;75511.28;4964465;28;104335;-71
2024/03/10 05:14:01;;;;;;;;;37.00;32.67;;;;;-143.90;88.20;75519.56;4965626;27;105387;-72
2024/03/10 05:16:28;;;;;;;;;40.00;33.25;;;;;-143.90;87.95;75507.16;4955526;28;102479;-71
2024/03/10 05:18:55;;;;;;;;;40.00;34.50;;;;;-143.90;88.15;75511.28;4965008;28;102005;-71
2024/03/10 05:21:24;;;;;;;;;33.00;28.75;;;;;-143.90;88.35;75511.28;4944137;28;102223;-71
2024/03/10 05:23:53;;;;;;;;;34.25;29.00;;;;;-143.90;88.69;75517.50;4959082;28;104354;-71
2024/03/10 05:26:19;;;;;;;;;40.25;33.25;;;;;-143.90;88.81;75519.56;4962985;28;102387;-72
2024/03/10 05:28:46;;;;;;;;;29.00;25.75;;;;;-143.90;88.84;75507.16;4965906;28;102728;-71
2024/03/10 05:31:29;;;;;;;;;30.75;26.00;;;;;-143.90;88.87;75498.88;4958755;28;102252;-71
2024/03/10 05:34:00;;;;;;;;;36.00;30.50;;;;;-143.90;88.64;75488.53;4965877;28;103984;-71
2024/03/10 05:36:28;;;;;;;;;30.00;24.50;;;;;-143.90;87.80;75478.22;4963631;27;104275;-71
2024/03/10 05:38:55;;;;;;;;;43.75;35.00;;;;;-143.90;87.49;75469.94;4967049;27;102065;-71
2024/03/10 05:41:22;;;;;;;;;33.50;29.50;;;;;-143.90;87.04;75469.94;4955106;28;103150;-72
2024/03/10 05:43:49;;;;;;;;;43.50;35.75;;;;;-143.90;87.54;75459.59;4968525;28;104400;-71
2024/03/10 05:46:16;;;;;;;;;37.25;32.75;;;;;-143.90;86.54;75457.53;4965122;28;103098;-72
2024/03/10 05:48:44;;;;;;;;;35.50;31.50;;;;;-143.90;87.28;75457.53;4961719;28;102551;-72
2024/03/10 05:51:12;;;;;;;;;36.75;33.75;;;;;-143.90;87.07;75461.66;4959234;27;102652;-72
2024/03/10 05:53:40;;;;;;;;;36.00;32.25;;;;;-143.90;87.60;75457.53;4949278;28;105573;-71
2024/03/10 05:56:07;;;;;;;;;40.75;33.75;;;;;-143.90;87.49;75447.19;4963592;28;102511;-71
2024/03/10 05:58:34;;;;;;;;;33.50;29.50;;;;;-143.90;86.61;75449.25;4948147;28;102542;-71
2024/03/10 06:01:02;;;;;;;;;37.00;30.75;;;;;-143.90;87.25;75443.06;4962203;28;102160;-71
2024/03/10 06:03:29;;;;;;;;;33.25;29.50;;;;;-143.90;85.91;75441.00;4954532;27;104129;-72
2024/03/10 06:05:56;;;;;;;;;36.00;29.75;;;;;-143.90;85.96;75441.00;4963396;28;102412;-71
2024/03/10 06:08:25;;;;;;;;;33.75;30.00;;;;;-143.90;85.87;75438.94;4954647;28;102531;-71
2024/03/10 06:10:53;;;;;;;;;32.75;24.25;;;;;-143.90;85.42;75438.94;4966043;28;102315;-71
2024/03/10 06:13:20;;;;;;;;;36.50;31.25;;;;;-143.90;85.30;75428.59;4954998;28;104173;-71
2024/03/10 06:15:47;;;;;;;;;35.50;31.50;;;;;-143.90;85.26;75428.59;4960179;28;102401;-71
2024/03/10 06:25:22;;;;;;;;;35.50;28.00;;;;;-143.90;85.22;75430.66;4963836;28;102411;-71
2024/03/10 06:26:50;;;;;;;;;32.00;29.75;;;;;-143.90;85.86;75424.44;4963894;28;102379;-71
2024/03/10 06:29:18;;;;;;;;;44.50;36.50;;;;;-143.90;84.37;75409.97;4962516;27;103369;-71
2024/03/10 06:31:44;;;;;;;;;32.25;26.00;;;;;-143.90;84.03;75395.50;4961751;28;102353;-72
2024/03/10 06:34:11;;;;;;;;;32.67;24.67;;;;;-143.90;83.90;75385.16;4964422;28;108838;-72
2024/03/10 06:36:38;;;;;;;;;65.33;45.33;;;;;-143.90;83.84;75383.09;4965694;27;102941;-72
2024/03/10 06:39:05;;;;;;;;;21.67;13.67;;;;;-143.90;83.50;75370.69;4964183;28;102100;-71
2024/03/10 06:41:33;;;;;;;;;55.75;37.00;;;;;-143.90;82.49;75358.28;4946547;28;102263;-71
2024/03/10 06:44:00;;;;;;;;;52.00;38.67;;;;;-143.90;82.28;75341.75;4962581;28;104001;-71
2024/03/10 06:46:27;;;;;;;;;37.75;33.00;;;;;-143.90;81.74;75331.41;4962051;28;102770;-72
2024/03/10 06:48:55;;;;;;;;;38.75;34.75;;;;;-143.90;80.81;75314.88;4962413;27;102370;-73
2024/03/10 06:51:22;;;;;;;;;40.50;35.00;;;;;-143.90;80.25;75300.41;4954908;28;106177;-72
2024/03/10 06:53:49;;;;;;;;;34.00;26.75;;;;;-143.90;79.16;75285.94;4962848;28;104180;-71
2024/03/10 06:56:15;;;;;;;;;29.00;27.00;;;;;-143.90;78.63;75279.72;4957491;28;102286;-71
2024/03/10 06:58:44;;;;;;;;;27.50;26.50;;;;;-143.90;78.07;75265.25;4966143;28;102628;-72
2024/03/10 07:01:10;;;;;;;;;27.00;25.00;;;;;-143.90;77.77;75263.19;4963259;28;102041;-71
2024/03/10 07:03:37;;;;;;;;;30.50;24.00;;;;;-143.90;77.85;75261.13;4951049;28;104326;-72
2024/03/10 07:06:06;;;;;;;;;38.50;30.50;;;;;-143.90;76.83;75254.91;4964078;28;102234;-72
2024/03/10 07:08:34;;;;;;;;;38.25;32.00;;;;;-143.90;77.88;75252.84;4965069;28;102100;-71
2024/03/10 07:11:01;;;;;;;;;33.50;23.00;;;;;-143.90;77.52;75254.91;4962564;27;101948;-71
2024/03/10 07:13:28;;;;;;;;;34.50;29.75;;;;;-143.90;77.77;75242.50;4949648;28;103992;-72
2024/03/10 07:15:55;;;;;;;;;28.75;23.00;;;;;-143.90;77.23;75228.03;4964615;28;102691;-72
2024/03/10 07:18:22;;;;;;;;;20.50;16.75;;;;;-143.90;76.39;75194.97;4960258;28;102310;-72
2024/03/10 07:20:49;;;;;;;;;28.00;25.25;;;;;-143.90;75.20;75174.28;4960354;28;102074;-72
2024/03/10 07:23:16;;;;;;;;;19.75;18.00;;;;;-143.90;74.43;75180.50;4957449;28;104368;-72
2024/03/10 07:25:43;;;;;;;;;27.25;25.25;;;;;-143.90;75.70;75182.56;4961328;28;102009;-72
2024/03/10 07:28:10;;;;;;;;;33.25;24.75;;;;;-143.90;75.49;75184.63;4961410;28;103590;-72
2024/03/10 07:30:36;;;;;;;;;25.50;22.75;;;;;-143.90;75.93;75172.22;4967590;28;102788;-72
2024/03/10 07:33:03;;;;;;;;;24.50;22.50;;;;;-143.90;76.18;75161.88;4963610;28;103528;-72
2024/03/10 07:35:30;;;;;;;;;23.50;22.50;;;;;-143.90;75.33;75159.81;4951154;28;102086;-71
2024/03/10 07:37:57;;;;;;;;;34.25;28.00;;;;;-143.90;74.79;75147.41;4962762;27;104440;-72
2024/03/10 07:40:24;;;;;;;;;27.50;24.75;;;;;-143.90;74.23;75139.16;4965307;27;102441;-72
2024/03/10 07:42:50;;;;;;;;;25.00;20.25;;;;;-143.90;73.47;75116.41;4964545;28;104126;-72
2024/03/10 07:45:17;;;;;;;;;27.75;22.75;;;;;-143.90;72.86;75097.78;4959863;27;102262;-72
2024/03/10 07:47:46;;;;;;;;;26.75;23.00;;;;;-143.90;71.88;75101.94;4952577;28;102097;-71
2024/03/10 07:50:14;;;;;;;;;31.75;25.00;;;;;-143.90;72.72;75097.78;4963511;28;102497;-71
2024/03/10 07:52:45;;;;;;;;;21.50;14.50;;;;;-143.90;72.16;75097.78;4964307;28;103953;-71
2024/03/10 07:55:12;;;;;;;;;24.00;22.00;;;;;-143.90;73.40;75072.97;4966843;28;105369;-71
2024/03/10 07:57:39;;;;;;;;;32.50;28.00;;;;;-143.90;71.47;75035.78;4952198;27;102347;-72
2024/03/10 08:00:11;;;;;;;;;29.00;23.00;;;;;-143.90;71.30;75019.22;4963922;28;103227;-72
2024/03/10 08:02:41;;;;;;;;;29.75;25.00;;;;;-143.90;70.07;74986.16;4960512;28;108722;-72
2024/03/10 08:05:12;;;;;;;;;28.00;22.25;;;;;-143.90;68.79;74965.50;4962593;28;102503;-71
2024/03/10 08:07:40;;;;;;;;;31.50;26.00;;;;;-143.90;69.00;74944.81;4953718;28;101970;-71
2024/03/10 08:10:08;;;;;;;;;30.25;25.50;;;;;-143.90;68.28;74932.41;4965835;28;102671;-71
2024/03/10 08:12:35;;;;;;;;;34.25;25.00;;;;;-143.90;67.92;74893.13;4962367;28;103988;-71
2024/03/10 08:15:02;;;;;;;;;27.00;24.00;;;;;-143.90;67.22;74862.13;4962925;28;103499;-71
2024/03/10 08:17:29;;;;;;;;;23.75;20.75;;;;;-143.90;65.13;74837.31;4951707;28;102295;-72
2024/03/10 08:19:56;;;;;;;;;21.25;17.00;;;;;-143.90;65.27;74816.66;4963115;28;102544;-72
2024/03/10 08:22:22;;;;;;;;;23.00;21.75;;;;;-143.90;65.31;74812.50;4962002;28;104068;-72
2024/03/10 08:24:49;;;;;;;;;24.00;20.00;;;;;-143.90;64.21;74806.31;4962555;28;102430;-72
2024/03/10 08:27:16;;;;;;;;;21.75;20.00;;;;;-143.90;65.07;74787.69;4964079;28;102044;-72
2024/03/10 08:29:43;;;;;;;;;27.25;24.50;;;;;-143.90;62.89;74773.22;4960138;28;104980;-71
2024/03/10 08:32:09;;;;;;;;;16.75;15.50;;;;;-143.90;63.21;74769.09;4958165;28;104092;-71
2024/03/10 08:34:36;;;;;;;;;24.25;21.00;;;;;-143.90;63.48;74733.97;4961266;28;103676;-71
2024/03/10 08:37:02;;;;;;;;;25.50;18.25;;;;;-143.90;62.07;74694.69;4965519;28;102268;-72
2024/03/10 08:39:30;;;;;;;;;18.75;17.25;;;;;-143.90;61.67;74671.94;4952196;28;102335;-72
2024/03/10 08:41:56;;;;;;;;;25.25;19.75;;;;;-143.90;60.91;74634.72;4962273;28;104120;-72
2024/03/10 08:44:23;;;;;;;;;20.50;16.75;;;;;-143.90;59.10;74643.00;4963524;28;102286;-70
2024/03/10 08:46:50;;;;;;;;;21.25;18.25;;;;;-143.90;58.57;74632.66;4959993;28;101917;-72
2024/03/10 08:49:17;;;;;;;;;19.50;17.75;;;;;-143.90;58.38;74616.13;4961030;28;103166;-71
2024/03/10 08:51:44;;;;;;;;;16.50;11.25;;;;;-143.90;56.63;74585.13;4959527;28;103871;-71
2024/03/10 08:54:11;;;;;;;;;14.25;12.50;;;;;-143.90;56.02;74533.44;4952090;28;102015;-72
2024/03/10 08:56:40;;;;;;;;;16.50;15.25;;;;;-143.90;54.01;74485.91;4962448;28;104832;-72
2024/03/10 08:59:11;;;;;;;;;15.25;12.75;;;;;-143.90;54.56;74450.75;4964757;28;102361;-73
2024/03/10 09:01:39;;;;;;;;;9.00;8.00;;;;;-143.90;54.04;74428.03;4949587;28;103795;-72
2024/03/10 09:04:07;;;;;;;;;12.75;11.50;;;;;-143.90;52.46;74384.63;4961506;28;102216;-71
2024/03/10 09:06:36;;;;;;;;;11.25;11.25;;;;;-143.90;50.77;74438.38;4963275;28;102909;-71
2024/03/10 09:09:08;;;;;;;;;15.25;12.25;;;;;-143.90;51.31;74487.97;4966008;28;102263;-71
2024/03/10 09:11:35;;;;;;;;;12.75;9.25;;;;;-143.90;51.72;74502.44;4937678;28;104162;-71
2024/03/10 09:14:03;;;;;;;;;9.75;8.25;;;;;-143.90;51.63;74432.16;4965204;28;102422;-71
2024/03/10 09:16:29;;;;;;;;;11.00;9.50;;;;;-143.90;50.22;74370.16;4962216;28;102068;-71
2024/03/10 09:18:56;;;;;;;;;10.00;9.00;;;;;-143.90;48.44;74328.81;4966482;28;102554;-72
2024/03/10 09:21:23;;;;;;;;;11.25;10.50;;;;;-143.90;48.82;74312.28;4949828;28;104224;-72
2024/03/10 09:23:51;;;;;;;;;11.00;10.75;;;;;-143.90;48.83;74335.00;4962536;28;102499;-72
2024/03/10 09:26:20;;;;;;;;;11.75;9.25;;;;;-143.90;49.34;74332.94;4959996;28;102129;-72
2024/03/10 09:28:47;;;;;;;;;9.75;9.00;;;;;-143.90;48.71;74310.22;4957161;28;102244;-72
2024/03/10 09:31:14;;;;;;;;;8.50;7.75;;;;;-143.90;48.62;74299.88;4958162;28;104469;-72
2024/03/10 09:33:44;;;;;;;;;8.50;7.00;;;;;-143.90;48.53;74287.47;4958714;28;102476;-73
2024/03/10 09:36:11;;;;;;;;;10.25;7.25;;;;;-143.90;49.80;74283.34;4965442;28;102568;-72
2024/03/10 09:38:40;;;;;;;;;9.50;8.75;;;;;-143.90;50.15;74289.53;4968213;28;102520;-72
2024/03/10 09:41:09;;;;;;;;;6.00;6.00;;;;;-143.90;49.28;74279.22;4964004;28;104097;-72
2024/03/10 09:43:37;;;;;;;;;7.00;5.75;;;;;-143.90;48.90;74281.28;4953118;27;105782;-71
2024/03/10 09:46:05;;;;;;;;;11.00;8.25;;;;;-143.90;50.33;74260.59;4960401;28;101937;-70
2024/03/10 09:48:32;;;;;;;;;14.00;11.75;;;;;-143.90;50.71;74239.94;4966446;28;101931;-71
2024/03/10 09:51:00;;;;;;;;;9.25;9.00;;;;;-143.90;48.44;74283.34;4965991;28;104009;-71
2024/03/10 09:53:27;;;;;;;;;13.25;13.00;;;;;-143.90;50.67;74349.47;4948064;28;103535;-73
2024/03/10 09:55:54;;;;;;;;;10.75;9.25;;;;;-143.90;50.06;74343.28;4962591;28;102221;-71
2024/03/10 09:58:30;;;;;;;;;14.00;13.00;;;;;-143.90;51.16;74403.22;4962368;28;103289;-70
2024/03/10 10:01:11;;;;;;;;;10.25;10.00;;;;;-143.90;50.62;74355.69;4966096;27;103991;-70
2024/03/10 10:03:43;;;;;;;;;10.25;7.50;;;;;-143.90;50.33;74335.00;4954990;27;102347;-71
2024/03/10 10:06:13;;;;;;;;;14.25;12.25;;;;;-143.90;50.89;74345.34;4965101;28;102337;-70
2024/03/10 10:08:41;;;;;;;;;10.50;9.75;;;;;-143.90;51.61;74332.94;4961847;28;102109;-71
2024/03/10 10:11:08;;;;;;;;;14.50;12.50;;;;;-143.90;51.95;74363.94;4958611;28;104342;-70
2024/03/10 10:13:35;;;;;;;;;10.00;8.25;;;;;-143.90;52.45;74324.69;4953182;27;102331;-71
2024/03/10 10:16:08;;;;;;;;;10.00;7.00;;;;;-143.90;51.07;74308.13;4962433;28;102380;-71
2024/03/10 10:18:38;;;;;;;;;11.00;11.00;;;;;-143.90;51.72;74312.28;4964822;28;102363;-71
2024/03/10 10:21:24;;;;;;;;;11.50;9.50;;;;;-143.90;51.05;74285.41;4945111;28;108752;-71
2024/03/10 10:23:51;;;;;;;;;11.25;10.00;;;;;-143.90;51.60;74312.28;4963706;28;102658;-71
2024/03/10 10:26:19;;;;;;;;;14.00;10.75;;;;;-143.90;54.17;74316.41;4955707;28;104858;-71
2024/03/10 10:28:46;;;;;;;;;9.75;7.00;;;;;-143.90;51.58;74332.94;4966629;28;102018;-72
2024/03/10 10:31:15;;;;;;;;;12.00;11.00;;;;;-143.90;51.54;74299.88;4968254;27;108757;-71
2024/03/10 10:33:46;;;;;;;;;7.25;7.00;;;;;-143.90;51.99;74293.66;4959531;27;101978;-71
2024/03/10 10:36:14;;;;;;;;;10.00;9.50;;;;;-143.90;51.73;74297.81;4968862;27;102774;-71
2024/03/10 10:38:44;;;;;;;;;12.00;10.75;;;;;-143.90;53.56;74291.59;4960877;28;102496;-71
2024/03/10 10:41:11;;;;;;;;;8.75;8.75;;;;;-143.90;52.88;74270.94;4954453;28;104107;-71
2024/03/10 10:43:39;;;;;;;;;15.75;14.75;;;;;-143.90;52.50;74246.13;4951324;27;102578;-71
2024/03/10 10:46:06;;;;;;;;;8.50;7.75;;;;;-143.90;51.82;74200.66;4957139;28;102364;-71
2024/03/10 10:48:36;;;;;;;;;11.00;10.00;;;;;-143.90;48.55;74184.13;4961825;28;102502;-71
2024/03/10 10:51:06;;;;;;;;;11.25;8.50;;;;;-143.90;49.10;74138.66;4964617;28;104418;-71
2024/03/10 10:53:34;;;;;;;;;6.00;5.00;;;;;-143.90;49.22;74118.00;4951703;28;104952;-72
2024/03/10 10:56:01;;;;;;;;;9.00;7.75;;;;;-143.90;49.47;74186.19;4961008;27;102269;-71
2024/03/10 10:58:31;;;;;;;;;13.00;12.00;;;;;-143.90;49.65;74175.84;4963815;27;102932;-72
2024/03/10 11:01:04;;;;;;;;;12.00;11.50;;;;;-143.90;49.55;74200.66;4962658;28;104019;-70
2024/03/10 11:03:36;;;;;;;;;10.25;9.25;;;;;-143.90;50.29;74219.25;4953902;28;102764;-71
2024/03/10 11:06:02;;;;;;;;;12.00;9.50;;;;;-143.90;49.33;74237.88;4962866;28;102033;-71
2024/03/10 11:08:35;;;;;;;;;9.75;8.75;;;;;-143.90;49.54;74239.94;4964079;27;102368;-71
2024/03/10 11:11:06;;;;;;;;;12.75;10.75;;;;;-143.90;50.80;74231.66;4962044;28;103953;-71
2024/03/10 11:13:34;;;;;;;;;10.50;9.25;;;;;-143.90;50.63;74260.59;4948419;28;104439;-71
2024/03/10 11:16:05;;;;;;;;;12.00;9.25;;;;;-143.90;50.67;74283.34;4963725;28;102410;-71
2024/03/10 11:18:38;;;;;;;;;10.50;10.50;;;;;-143.90;49.90;74266.81;4965453;28;102254;-71